Time;durP1;ratioP1;P1;durP2;ratioP2;P2;SDS_P1;SDS_P2;PMS_P1;PMS_P2;Temp;Humidity;BMP_temperature;BMP_pressure;BME280_temperature;BME280_humidity;BME280_pressure;Samples;Min_cycle;Max_cycle;Signal;HPM_P1;HPM_P2
2023/07/15 00:01:08;;;;;;;3.17;2.20;;;22.20;49.00;;;;;;5070003;28;20442;-73
2023/07/15 00:03:34;;;;;;;2.73;2.23;;;22.10;49.10;;;;;;5087111;28;20453;-74
2023/07/15 00:06:01;;;;;;;3.87;2.83;;;22.00;49.20;;;;;;5107798;28;20426;-74
2023/07/15 00:08:27;;;;;;;4.13;2.20;;;22.00;49.50;;;;;;5089302;28;20203;-75
2023/07/15 00:10:54;;;;;;;5.00;2.60;;;22.00;49.60;;;;;;5077433;28;20507;-75
2023/07/15 00:13:22;;;;;;;3.30;2.73;;;21.90;49.70;;;;;;5109603;28;20406;-75
2023/07/15 00:15:53;;;;;;;2.93;2.20;;;21.90;49.80;;;;;;5090634;28;20423;-76
2023/07/15 00:18:21;;;;;;;2.97;2.20;;;21.90;49.90;;;;;;5049045;28;20192;-73
2023/07/15 00:20:47;;;;;;;3.03;2.27;;;21.80;50.00;;;;;;5069414;28;20446;-74
2023/07/15 00:23:26;;;;;;;3.33;2.27;;;21.80;50.10;;;;;;5107715;28;20487;-76
2023/07/15 00:25:53;;;;;;;2.73;2.00;;;21.70;50.20;;;;;;5085004;28;20180;-75
2023/07/15 00:28:20;;;;;;;5.90;2.70;;;21.70;50.30;;;;;;5073102;28;20882;-74
2023/07/15 00:30:50;;;;;;;3.10;2.73;;;21.60;50.40;;;;;;5093220;28;20543;-74
2023/07/15 00:33:16;;;;;;;2.53;2.23;;;21.60;50.40;;;;;;5050617;28;20534;-77
2023/07/15 00:35:43;;;;;;;2.20;2.00;;;21.60;50.50;;;;;;5070018;28;20480;-74
2023/07/15 00:38:13;;;;;;;3.67;2.13;;;21.50;50.50;;;;;;5076936;28;20418;-73
2023/07/15 00:40:42;;;;;;;2.90;2.40;;;21.50;50.60;;;;;;5090003;28;20522;-72
2023/07/15 00:43:45;;;;;;;3.63;2.17;;;21.50;50.70;;;;;;5107370;28;20450;-76
2023/07/15 00:46:43;;;;;;;1.90;1.40;;;21.40;50.60;;;;;;5093050;28;20801;-74
2023/07/15 00:49:23;;;;;;;2.33;1.97;;;21.40;50.60;;;;;;5106017;28;20458;-72
2023/07/15 00:52:20;;;;;;;2.07;1.47;;;21.30;50.60;;;;;;5106889;28;20454;-75
2023/07/15 00:54:50;;;;;;;3.77;2.23;;;21.30;50.70;;;;;;5085630;28;20389;-74
2023/07/15 00:57:17;;;;;;;3.73;1.93;;;21.30;50.80;;;;;;5091322;28;20841;-74
2023/07/15 00:59:44;;;;;;;3.03;2.10;;;21.30;50.90;;;;;;5106697;28;20423;-72
2023/07/15 01:02:13;;;;;;;2.53;2.13;;;21.20;50.90;;;;;;5074956;28;20395;-71
2023/07/15 01:04:38;;;;;;;2.23;2.00;;;21.20;50.90;;;;;;5050266;28;20458;-72
2023/07/15 01:07:07;;;;;;;5.37;2.33;;;21.20;51.10;;;;;;5053640;28;20428;-72
2023/07/15 01:09:36;;;;;;;3.13;2.07;;;21.20;51.20;;;;;;5088954;28;20295;-74
2023/07/15 01:12:04;;;;;;;2.40;2.07;;;21.10;51.20;;;;;;5088924;28;20442;-73
2023/07/15 01:14:30;;;;;;;3.10;2.30;;;21.10;51.30;;;;;;5087166;28;20403;-71
2023/07/15 01:16:57;;;;;;;2.37;2.00;;;21.10;51.50;;;;;;5067086;28;20408;-75
2023/07/15 01:19:23;;;;;;;2.20;1.90;;;21.10;51.60;;;;;;5092374;28;20450;-74
2023/07/15 01:21:50;;;;;;;2.23;2.00;;;21.00;51.60;;;;;;5071036;28;20413;-73
2023/07/15 01:24:20;;;;;;;1.90;1.60;;;21.00;51.80;;;;;;5085941;28;20191;-71
2023/07/15 01:26:47;;;;;;;2.47;1.90;;;20.90;51.90;;;;;;5068439;28;20415;-76
2023/07/15 01:29:13;;;;;;;2.97;1.97;;;20.90;51.90;;;;;;5104290;28;20434;-73
2023/07/15 01:31:40;;;;;;;3.00;2.17;;;20.90;52.00;;;;;;5055308;28;20493;-71
2023/07/15 01:34:07;;;;;;;4.30;2.20;;;20.90;52.20;;;;;;5088733;28;20414;-72
2023/07/15 01:36:33;;;;;;;1.83;1.60;;;20.80;52.20;;;;;;5103461;28;20407;-72
2023/07/15 01:38:58;;;;;;;2.30;1.63;;;20.80;52.40;;;;;;5085203;28;20460;-73
2023/07/15 01:41:25;;;;;;;2.33;2.03;;;20.80;52.50;;;;;;5105911;28;20553;-77
2023/07/15 01:43:51;;;;;;;2.57;2.07;;;20.80;52.60;;;;;;5107936;28;20202;-73
2023/07/15 01:46:17;;;;;;;3.80;2.63;;;20.80;52.60;;;;;;5103160;28;20397;-71
2023/07/15 01:48:43;;;;;;;3.20;2.37;;;20.80;52.80;;;;;;5090541;28;20183;-75
2023/07/15 01:51:10;;;;;;;2.90;2.00;;;20.80;52.90;;;;;;5074070;28;20429;-74
2023/07/15 01:53:35;;;;;;;2.20;1.90;;;20.70;53.00;;;;;;5090016;28;20402;-72
2023/07/15 01:56:01;;;;;;;2.83;1.60;;;20.70;53.20;;;;;;5071262;28;20295;-73
2023/07/15 01:58:26;;;;;;;2.30;1.93;;;20.70;53.40;;;;;;5085478;28;20179;-76
2023/07/15 02:00:53;;;;;;;2.40;1.77;;;20.70;53.60;;;;;;5068252;28;20297;-71
2023/07/15 02:03:19;;;;;;;2.50;2.10;;;20.70;53.70;;;;;;5073691;28;20521;-75
2023/07/15 02:05:45;;;;;;;2.63;2.00;;;20.70;53.80;;;;;;5066980;28;20462;-72
2023/07/15 02:08:10;;;;;;;3.10;1.83;;;20.70;53.90;;;;;;5106171;28;20255;-70
2023/07/15 02:10:36;;;;;;;2.23;1.53;;;20.70;54.00;;;;;;5089288;28;20205;-74
2023/07/15 02:13:02;;;;;;;2.33;1.67;;;20.60;53.90;;;;;;5106658;28;20191;-71
2023/07/15 02:15:27;;;;;;;2.60;2.00;;;20.60;54.00;;;;;;5075398;28;20177;-74
2023/07/15 02:17:54;;;;;;;1.83;1.47;;;20.60;54.00;;;;;;5085208;28;20154;-74
2023/07/15 02:20:22;;;;;;;2.33;1.60;;;20.50;54.00;;;;;;5090257;28;20228;-73
2023/07/15 02:22:48;;;;;;;2.57;1.70;;;20.50;54.10;;;;;;5089088;28;20418;-71
2023/07/15 02:25:14;;;;;;;3.80;1.73;;;20.50;54.20;;;;;;5088606;28;20428;-72
2023/07/15 02:27:39;;;;;;;2.37;1.97;;;20.50;54.30;;;;;;5089086;28;20204;-78
2023/07/15 02:30:08;;;;;;;1.90;1.60;;;20.60;54.30;;;;;;5065943;28;20217;-72
2023/07/15 02:32:36;;;;;;;1.47;1.30;;;20.70;54.20;;;;;;5065386;28;20233;-72
2023/07/15 02:35:03;;;;;;;2.57;1.87;;;20.70;53.90;;;;;;5071401;28;20423;-76
2023/07/15 02:37:29;;;;;;;4.00;1.77;;;20.70;53.80;;;;;;5089172;28;20486;-76
2023/07/15 02:39:55;;;;;;;2.37;1.80;;;20.70;53.80;;;;;;5073051;28;20440;-71
2023/07/15 02:42:21;;;;;;;1.93;1.33;;;20.70;53.90;;;;;;5108229;28;20272;-75
2023/07/15 02:44:47;;;;;;;1.90;1.60;;;20.60;53.90;;;;;;5072237;28;20830;-70
2023/07/15 02:47:12;;;;;;;1.87;1.40;;;20.60;54.00;;;;;;5052811;28;20190;-72
2023/07/15 02:49:38;;;;;;;3.40;2.13;;;20.60;54.00;;;;;;5053603;28;20208;-74
2023/07/15 02:52:04;;;;;;;1.90;1.53;;;20.50;54.00;;;;;;5074078;28;20207;-72
2023/07/15 02:54:29;;;;;;;2.90;1.70;;;20.50;54.10;;;;;;5106813;28;20180;-72
2023/07/15 02:56:57;;;;;;;2.07;1.50;;;20.50;54.20;;;;;;5088235;28;20454;-73
2023/07/15 02:59:26;;;;;;;3.93;1.97;;;20.40;54.30;;;;;;5085705;28;20438;-72
2023/07/15 03:01:52;;;;;;;4.80;2.80;;;20.40;54.50;;;;;;5047883;28;20481;-72
2023/07/15 03:04:18;;;;;;;4.23;2.83;;;20.30;54.80;;;;;;5088144;28;20450;-73
2023/07/15 03:06:44;;;;;;;3.37;2.50;;;20.40;55.00;;;;;;5085046;28;20181;-73
2023/07/15 03:09:11;;;;;;;4.87;2.37;;;20.40;55.40;;;;;;5102307;28;20413;-72
2023/07/15 03:11:37;;;;;;;3.03;2.40;;;20.40;55.50;;;;;;5103752;28;20203;-74
2023/07/15 03:14:02;;;;;;;3.73;2.27;;;20.30;55.50;;;;;;5102533;28;20399;-72
2023/07/15 03:16:28;;;;;;;3.93;2.57;;;20.30;55.70;;;;;;5078952;28;20195;-70
2023/07/15 03:18:53;;;;;;;2.27;1.70;;;20.30;55.90;;;;;;5094737;28;20268;-71
2023/07/15 03:21:19;;;;;;;1.70;1.53;;;20.20;56.10;;;;;;5095198;28;20222;-70
2023/07/15 03:23:44;;;;;;;2.40;1.60;;;20.20;56.20;;;;;;5095481;28;20180;-71
2023/07/15 03:26:10;;;;;;;2.00;1.40;;;20.10;56.30;;;;;;5095289;28;20475;-71
2023/07/15 03:28:38;;;;;;;1.50;1.40;;;20.10;56.40;;;;;;5075966;28;20638;-71
2023/07/15 03:31:04;;;;;;;1.50;1.40;;;20.10;56.50;;;;;;5080719;28;20495;-71
2023/07/15 03:33:30;;;;;;;1.67;1.50;;;20.00;56.60;;;;;;5056960;28;20185;-70
2023/07/15 03:35:58;;;;;;;1.90;1.23;;;20.00;56.80;;;;;;5095142;28;20188;-71
2023/07/15 03:38:23;;;;;;;1.70;1.27;;;19.90;57.00;;;;;;5077707;28;20706;-71
2023/07/15 03:40:49;;;;;;;1.83;1.67;;;19.80;57.00;;;;;;5094692;28;20434;-72
2023/07/15 03:43:16;;;;;;;1.87;1.33;;;19.80;57.20;;;;;;5095428;28;20559;-72
2023/07/15 03:45:41;;;;;;;2.00;1.53;;;19.80;57.30;;;;;;5079031;28;20855;-70
2023/07/15 03:48:07;;;;;;;2.20;1.67;;;19.80;57.30;;;;;;5094657;28;20578;-71
2023/07/15 03:50:32;;;;;;;2.57;1.40;;;19.80;57.30;;;;;;5094433;28;20254;-72
2023/07/15 03:52:58;;;;;;;2.13;1.50;;;19.80;57.20;;;;;;5095999;28;20184;-71
2023/07/15 03:55:23;;;;;;;2.53;1.50;;;19.90;57.10;;;;;;5080009;28;20234;-71
2023/07/15 03:57:49;;;;;;;3.13;1.70;;;20.00;57.00;;;;;;5098412;28;20180;-71
2023/07/15 04:00:17;;;;;;;2.20;1.80;;;20.00;56.80;;;;;;5066845;28;20245;-76
2023/07/15 04:02:44;;;;;;;1.73;1.60;;;20.10;56.70;;;;;;5070792;28;20199;-71
2023/07/15 04:05:11;;;;;;;2.10;1.80;;;20.20;56.50;;;;;;5103252;28;20462;-72
2023/07/15 04:07:37;;;;;;;2.00;1.80;;;20.20;56.40;;;;;;5084306;28;20422;-70
2023/07/15 04:10:03;;;;;;;2.00;1.53;;;20.30;56.40;;;;;;5098513;28;20801;-71
2023/07/15 04:12:28;;;;;;;2.40;1.70;;;20.30;56.20;;;;;;5098931;28;20177;-72
2023/07/15 04:14:54;;;;;;;2.40;2.07;;;20.40;56.10;;;;;;5091039;28;20431;-70
2023/07/15 04:17:19;;;;;;;2.03;1.50;;;20.40;56.00;;;;;;5070417;28;20200;-71
2023/07/15 04:19:45;;;;;;;2.27;1.50;;;20.50;55.90;;;;;;5097612;28;20204;-72
2023/07/15 04:22:11;;;;;;;2.13;1.70;;;20.60;55.70;;;;;;5098454;28;20184;-70
2023/07/15 04:24:36;;;;;;;1.80;1.57;;;20.70;55.50;;;;;;5098132;28;20211;-71
2023/07/15 04:27:02;;;;;;;1.90;1.70;;;20.80;55.30;;;;;;5099023;28;20180;-71
2023/07/15 04:29:30;;;;;;;2.40;1.93;;;20.90;55.10;;;;;;5098427;28;20290;-70
2023/07/15 04:31:56;;;;;;;1.80;1.33;;;21.00;54.90;;;;;;5063534;28;20252;-72
2023/07/15 04:34:22;;;;;;;2.03;1.60;;;21.00;54.60;;;;;;5076826;28;20472;-71
2023/07/15 04:36:48;;;;;;;2.60;1.43;;;21.20;54.50;;;;;;5099623;28;20177;-72
2023/07/15 04:39:14;;;;;;;1.97;1.50;;;21.30;54.30;;;;;;5098570;28;20337;-72
2023/07/15 04:41:39;;;;;;;2.63;1.70;;;21.30;54.10;;;;;;5098482;28;20494;-73
2023/07/15 04:44:05;;;;;;;5.83;2.60;;;21.40;54.20;;;;;;5098779;28;20180;-72
2023/07/15 04:46:31;;;;;;;5.83;1.93;;;21.40;54.20;;;;;;5067957;28;20213;-69
2023/07/15 04:48:56;;;;;;;3.17;2.10;;;21.50;54.30;;;;;;5059157;28;20193;-71
2023/07/15 04:51:22;;;;;;;2.27;1.77;;;21.60;54.30;;;;;;5099125;28;20223;-72
2023/07/15 04:53:47;;;;;;;2.57;1.73;;;21.60;54.30;;;;;;5098611;28;20192;-72
2023/07/15 04:56:13;;;;;;;1.90;1.73;;;21.70;54.20;;;;;;5098650;28;20184;-70
2023/07/15 04:58:39;;;;;;;2.07;1.53;;;21.90;54.00;;;;;;5098554;28;20259;-70
2023/07/15 05:01:04;;;;;;;2.10;1.60;;;22.50;53.40;;;;;;5070739;28;20520;-70
2023/07/15 05:03:32;;;;;;;2.10;1.90;;;23.10;52.30;;;;;;5075211;28;20728;-71
2023/07/15 05:05:58;;;;;;;2.30;1.73;;;23.80;51.10;;;;;;5087660;28;20203;-72
2023/07/15 05:08:23;;;;;;;2.83;2.00;;;24.50;50.00;;;;;;5098709;28;20422;-70
2023/07/15 05:10:49;;;;;;;2.37;1.50;;;25.00;48.80;;;;;;5098409;28;20291;-72
2023/07/15 05:13:15;;;;;;;2.67;1.97;;;25.50;47.80;;;;;;5097524;28;20181;-72
2023/07/15 05:15:42;;;;;;;1.97;1.60;;;25.90;46.80;;;;;;5083691;28;20193;-71
2023/07/15 05:18:08;;;;;;;2.00;1.43;;;26.30;46.00;;;;;;5095702;28;20385;-71
2023/07/15 05:20:34;;;;;;;1.80;1.60;;;26.60;45.20;;;;;;5097853;28;20450;-72
2023/07/15 05:23:01;;;;;;;2.00;1.47;;;27.00;45.20;;;;;;5098719;28;20455;-70
2023/07/15 05:25:27;;;;;;;3.30;1.70;;;27.30;43.90;;;;;;5098316;28;20414;-70
2023/07/15 05:27:52;;;;;;;2.80;1.70;;;27.60;43.20;;;;;;5098339;28;20422;-73
2023/07/15 05:30:19;;;;;;;2.23;1.90;;;27.80;42.70;;;;;;5091232;28;20266;-74
2023/07/15 05:32:45;;;;;;;2.07;1.73;;;28.10;42.20;;;;;;5083207;28;20228;-71
2023/07/15 05:35:10;;;;;;;2.00;1.73;;;28.30;41.70;;;;;;5098152;28;20366;-72
2023/07/15 05:37:37;;;;;;;3.03;2.43;;;28.50;41.30;;;;;;5097289;28;20180;-70
2023/07/15 05:40:09;;;;;;;2.47;2.00;;;28.70;40.90;;;;;;5097511;28;20200;-72
2023/07/15 05:42:44;;;;;;;2.50;1.97;;;28.90;40.70;;;;;;5079390;28;20444;-72
2023/07/15 05:45:10;;;;;;;2.33;1.73;;;29.10;40.10;;;;;;5090832;28;20441;-72
2023/07/15 05:47:37;;;;;;;2.93;2.23;;;29.40;39.90;;;;;;5088888;28;20397;-70
2023/07/15 05:50:03;;;;;;;3.00;2.07;;;29.60;39.70;;;;;;5096516;28;20534;-71
2023/07/15 05:52:29;;;;;;;1.83;1.73;;;29.70;39.40;;;;;;5096938;28;20880;-72
2023/07/15 05:54:55;;;;;;;3.53;1.93;;;29.90;39.30;;;;;;5097666;28;20410;-71
2023/07/15 05:57:21;;;;;;;2.90;1.90;;;30.00;39.00;;;;;;5096718;28;20199;-70
2023/07/15 05:59:46;;;;;;;3.37;2.30;;;30.20;38.70;;;;;;5093519;28;20193;-72
2023/07/15 06:02:12;;;;;;;3.43;1.67;;;30.40;38.30;;;;;;5077502;28;20196;-74
2023/07/15 06:04:37;;;;;;;2.30;2.10;;;30.50;38.10;;;;;;5076572;28;20228;-71
2023/07/15 06:07:03;;;;;;;4.57;2.03;;;30.60;37.90;;;;;;5095308;28;20203;-70
2023/07/15 06:09:28;;;;;;;2.80;2.30;;;30.60;37.80;;;;;;5096254;28;20216;-72
2023/07/15 06:11:54;;;;;;;4.30;2.20;;;30.50;37.80;;;;;;5097046;28;20219;-70
2023/07/15 06:14:20;;;;;;;3.40;2.07;;;30.60;37.80;;;;;;5096147;28;20444;-73
2023/07/15 06:16:45;;;;;;;2.43;1.83;;;30.70;37.70;;;;;;5061697;28;20186;-74
2023/07/15 06:19:11;;;;;;;3.37;1.90;;;30.70;37.50;;;;;;5091893;28;20472;-72
2023/07/15 06:21:36;;;;;;;3.00;2.20;;;30.70;37.50;;;;;;5096955;28;20197;-73
2023/07/15 06:24:03;;;;;;;2.93;2.23;;;30.50;37.60;;;;;;5096646;28;20180;-70
2023/07/15 06:26:28;;;;;;;3.57;2.47;;;30.30;38.10;;;;;;5096514;28;20169;-73
2023/07/15 06:28:54;;;;;;;2.50;2.10;;;30.40;38.30;;;;;;5096217;28;20477;-72
2023/07/15 06:31:20;;;;;;;4.43;2.20;;;30.50;38.10;;;;;;5073574;28;20244;-70
2023/07/15 06:33:47;;;;;;;3.73;2.37;;;30.50;38.00;;;;;;5078444;28;20188;-70
2023/07/15 06:36:13;;;;;;;2.10;1.63;;;30.40;38.10;;;;;;5097061;28;20445;-71
2023/07/15 06:38:39;;;;;;;2.00;1.80;;;30.70;38.30;;;;;;5096344;28;20502;-73
2023/07/15 06:41:05;;;;;;;2.27;1.83;;;30.70;37.90;;;;;;5096880;28;20212;-73
2023/07/15 06:43:31;;;;;;;2.20;2.00;;;30.70;38.10;;;;;;5096295;28;20429;-74
2023/07/15 06:45:56;;;;;;;1.93;1.73;;;30.50;38.20;;;;;;5052826;28;20204;-73
2023/07/15 06:48:22;;;;;;;2.93;1.67;;;30.20;38.60;;;;;;5055920;28;20570;-73
2023/07/15 06:50:48;;;;;;;2.50;1.63;;;29.90;39.20;;;;;;5069569;28;20212;-73
2023/07/15 06:53:14;;;;;;;6.23;2.30;;;29.60;39.70;;;;;;5096442;28;20410;-73
2023/07/15 06:55:39;;;;;;;2.30;1.60;;;29.40;39.70;;;;;;5096488;28;20271;-71
2023/07/15 06:58:06;;;;;;;2.83;2.10;;;29.20;39.90;;;;;;5096082;28;20172;-72
2023/07/15 07:00:33;;;;;;;2.57;2.10;;;29.00;40.00;;;;;;5079182;28;20205;-72
2023/07/15 07:03:00;;;;;;;3.30;1.90;;;28.80;40.30;;;;;;5048122;28;20427;-74
2023/07/15 07:05:26;;;;;;;2.17;1.97;;;28.70;40.50;;;;;;5054494;28;20859;-73
2023/07/15 07:07:52;;;;;;;2.37;1.87;;;28.60;40.80;;;;;;5087091;28;20410;-75
2023/07/15 07:10:18;;;;;;;2.40;1.80;;;28.50;41.70;;;;;;5101820;28;20454;-72
2023/07/15 07:12:43;;;;;;;2.47;1.80;;;28.40;41.30;;;;;;5090298;28;20404;-76
2023/07/15 07:15:09;;;;;;;2.63;2.10;;;28.20;41.50;;;;;;5081759;28;20205;-72
2023/07/15 07:17:35;;;;;;;2.83;1.70;;;28.10;42.00;;;;;;5096948;28;20177;-73
2023/07/15 07:20:03;;;;;;;2.60;1.97;;;28.00;42.10;;;;;;5105073;28;20723;-75
2023/07/15 07:22:29;;;;;;;2.10;1.90;;;27.80;42.30;;;;;;5087543;28;20181;-74
2023/07/15 07:24:54;;;;;;;1.93;1.57;;;27.70;42.70;;;;;;5091070;28;20663;-76
2023/07/15 07:27:20;;;;;;;2.73;2.10;;;27.50;43.00;;;;;;5105875;28;20445;-74
2023/07/15 07:29:46;;;;;;;3.87;1.50;;;27.40;43.30;;;;;;5086477;28;20204;-73
2023/07/15 07:32:11;;;;;;;3.57;1.60;;;27.20;44.00;;;;;;5073350;28;20220;-72
2023/07/15 07:34:37;;;;;;;2.50;1.77;;;26.90;44.90;;;;;;5072064;28;20177;-73
2023/07/15 07:37:03;;;;;;;2.60;2.00;;;26.60;45.90;;;;;;5068273;28;20582;-74
2023/07/15 07:39:28;;;;;;;4.27;1.90;;;26.50;46.50;;;;;;5069832;28;20226;-75
2023/07/15 07:41:55;;;;;;;3.00;2.30;;;26.20;47.70;;;;;;5087359;28;20830;-74
2023/07/15 07:44:21;;;;;;;3.70;2.50;;;26.00;48.90;;;;;;5085897;28;20566;-75
2023/07/15 07:46:46;;;;;;;3.90;2.63;;;25.70;49.80;;;;;;5060485;28;20437;-73
2023/07/15 07:49:12;;;;;;;5.67;2.73;;;25.60;50.30;;;;;;5103643;28;20408;-73
2023/07/15 07:51:38;;;;;;;6.13;3.83;;;25.60;50.60;;;;;;5105036;28;20203;-73
2023/07/15 07:54:03;;;;;;;3.30;2.27;;;25.60;51.30;;;;;;5071800;28;20265;-75
2023/07/15 07:56:30;;;;;;;3.20;1.90;;;25.70;51.00;;;;;;5107423;28;20177;-74
2023/07/15 07:58:57;;;;;;;3.90;2.10;;;25.70;50.90;;;;;;5104478;28;20230;-74
2023/07/15 08:01:27;;;;;;;3.20;1.80;;;25.80;51.10;;;;;;5064244;28;20489;-72
2023/07/15 08:03:55;;;;;;;5.43;2.00;;;25.80;51.10;;;;;;5069510;28;20421;-73
2023/07/15 08:06:23;;;;;;;7.60;2.40;;;25.70;51.00;;;;;;5064897;28;20391;-72
2023/07/15 08:08:49;;;;;;;8.07;2.70;;;25.60;51.10;;;;;;5063626;28;20451;-75
2023/07/15 08:11:14;;;;;;;3.77;2.33;;;25.60;51.60;;;;;;5060195;28;20451;-72
2023/07/15 08:13:40;;;;;;;3.03;1.83;;;25.50;51.90;;;;;;5108020;28;20192;-75
2023/07/15 08:16:05;;;;;;;3.60;2.57;;;25.30;52.30;;;;;;5078481;28;20183;-75
2023/07/15 08:18:31;;;;;;;2.50;2.20;;;25.10;53.60;;;;;;5080029;28;20173;-71
2023/07/15 08:20:57;;;;;;;6.53;2.53;;;24.70;55.20;;;;;;5084505;28;20208;-73
2023/07/15 08:23:22;;;;;;;3.47;2.70;;;24.30;57.50;;;;;;5083140;28;20259;-71
2023/07/15 08:25:48;;;;;;;3.00;2.53;;;23.80;59.00;;;;;;5101326;28;20202;-71
2023/07/15 08:28:14;;;;;;;2.90;2.43;;;23.50;61.20;;;;;;5101196;28;20185;-72
2023/07/15 08:30:39;;;;;;;3.00;2.20;;;23.20;64.00;;;;;;5069891;28;20504;-74
2023/07/15 08:33:06;;;;;;;3.80;2.80;;;22.90;67.00;;;;;;5063822;28;20166;-73
2023/07/15 08:35:33;;;;;;;3.87;2.43;;;22.60;71.10;;;;;;5082041;28;20185;-75
2023/07/15 08:37:59;;;;;;;3.07;2.70;;;22.30;79.10;;;;;;5082411;28;20377;-72
2023/07/15 08:40:25;;;;;;;6.00;3.47;;;22.00;92.10;;;;;;5065810;28;20427;-76
2023/07/15 08:42:52;;;;;;;4.10;2.93;;;21.70;99.20;;;;;;5104874;28;20180;-73
2023/07/15 08:45:18;;;;;;;7.70;2.83;;;21.50;99.90;;;;;;5097967;28;20435;-76
2023/07/15 08:47:44;;;;;;;2.83;2.50;;;21.20;99.90;;;;;;5083263;28;20437;-73
2023/07/15 08:50:17;;;;;;;3.80;2.63;;;21.00;99.90;;;;;;5097076;28;20484;-71
2023/07/15 08:52:44;;;;;;;3.27;2.90;;;20.80;99.90;;;;;;5088799;28;20413;-75
2023/07/15 08:55:10;;;;;;;2.57;2.37;;;20.60;99.90;;;;;;5107083;28;20442;-74
2023/07/15 08:57:36;;;;;;;3.73;2.50;;;20.50;99.90;;;;;;5073532;28;20433;-73
2023/07/15 09:00:07;;;;;;;2.87;2.57;;;20.40;99.90;;;;;;5102728;28;20480;-75
2023/07/15 09:02:37;;;;;;;5.63;2.83;;;20.30;99.90;;;;;;5078495;28;20427;-74
2023/07/15 09:05:07;;;;;;;4.83;2.87;;;20.20;99.90;;;;;;5107712;28;20783;-73
2023/07/15 09:07:49;;;;;;;4.17;3.03;;;20.10;99.90;;;;;;5089742;28;20402;-72
2023/07/15 09:10:15;;;;;;;4.10;3.00;;;20.10;99.90;;;;;;5088357;28;20438;-72
2023/07/15 09:12:55;;;;;;;3.90;3.00;;;20.00;99.90;;;;;;5107159;28;20535;-73
2023/07/15 09:15:21;;;;;;;5.80;3.47;;;20.00;99.90;;;;;;5075236;28;20196;-74
2023/07/15 09:17:55;;;;;;;4.23;3.83;;;19.90;99.90;;;;;;5059538;28;20418;-72
2023/07/15 09:20:22;;;;;;;4.30;3.10;;;19.90;99.90;;;;;;5107015;28;20458;-72
2023/07/15 09:22:56;;;;;;;3.87;3.27;;;19.90;99.90;;;;;;5107856;28;20410;-74
2023/07/15 09:25:22;;;;;;;4.63;3.20;;;19.80;99.90;;;;;;5089366;28;20418;-74
2023/07/15 09:27:49;;;;;;;3.97;2.77;;;19.70;99.90;;;;;;5090687;28;20869;-74
2023/07/15 09:30:16;;;;;;;3.27;2.97;;;19.70;99.90;;;;;;5065544;28;20446;-74
2023/07/15 09:32:42;;;;;;;3.63;3.33;;;19.60;99.90;;;;;;5066372;28;20498;-74
2023/07/15 09:35:08;;;;;;;5.23;4.00;;;19.50;99.90;;;;;;5105695;28;20434;-75
2023/07/15 09:37:34;;;;;;;4.63;4.10;;;19.40;99.90;;;;;;5091188;28;20207;-73
2023/07/15 09:40:05;;;;;;;4.40;4.00;;;19.40;99.90;;;;;;5089904;28;20457;-73
2023/07/15 09:42:48;;;;;;;6.47;4.40;;;19.30;99.90;;;;;;5090161;28;20797;-75
2023/07/15 09:45:37;;;;;;;4.70;3.60;;;19.30;99.90;;;;;;5088212;28;20437;-75
2023/07/15 09:48:09;;;;;;;7.10;4.10;;;19.40;99.90;;;;;;5068886;28;20424;-72
2023/07/15 09:50:37;;;;;;;5.57;4.30;;;19.40;99.90;;;;;;5084282;28;20990;-74
2023/07/15 09:53:04;;;;;;;4.37;3.97;;;19.40;99.90;;;;;;5107812;28;20385;-75
2023/07/15 09:55:31;;;;;;;4.40;4.00;;;19.50;99.90;;;;;;5089071;28;20437;-73
2023/07/15 09:58:32;;;;;;;5.23;4.17;;;19.60;99.90;;;;;;5107427;28;20485;-73
2023/07/15 10:01:11;;;;;;;6.43;4.50;;;19.70;99.90;;;;;;5017435;28;20451;-73
2023/07/15 10:03:48;;;;;;;5.40;4.70;;;19.50;99.90;;;;;;5089533;28;20402;-75
2023/07/15 10:06:15;;;;;;;4.83;4.00;;;19.40;99.90;;;;;;5090072;28;20421;-77
2023/07/15 10:08:41;;;;;;;7.90;5.53;;;19.50;99.90;;;;;;5106820;28;20398;-74
2023/07/15 10:11:08;;;;;;;9.43;5.83;;;19.50;99.90;;;;;;5106021;28;20534;-73
2023/07/15 10:13:34;;;;;;;5.97;4.97;;;19.50;99.90;;;;;;5070691;28;20448;-74
2023/07/15 10:16:02;;;;;;;9.20;6.23;;;19.50;99.90;;;;;;5078763;28;20499;-74
2023/07/15 10:18:31;;;;;;;8.03;5.50;;;19.50;99.90;;;;;;5056787;28;20406;-72
2023/07/15 10:21:04;;;;;;;10.07;6.00;;;19.50;99.90;;;;;;5106951;28;20449;-75
2023/07/15 10:23:32;;;;;;;9.90;5.63;;;19.40;99.90;;;;;;5088855;28;20428;-73
2023/07/15 10:26:04;;;;;;;5.60;5.07;;;19.30;99.90;;;;;;5088305;28;20402;-76
2023/07/15 10:28:34;;;;;;;6.50;5.83;;;19.30;99.90;;;;;;5108042;28;20425;-74
2023/07/15 10:31:15;;;;;;;6.93;6.23;;;19.30;99.90;;;;;;5057097;28;20467;-73
2023/07/15 10:33:54;;;;;;;7.47;6.20;;;19.20;99.90;;;;;;5074206;28;20411;-74
2023/07/15 10:36:41;;;;;;;9.50;6.93;;;19.20;99.90;;;;;;5107337;28;20424;-75
2023/07/15 10:39:18;;;;;;;7.77;6.17;;;19.20;99.90;;;;;;5106447;28;20442;-73
2023/07/15 10:41:48;;;;;;;7.00;6.30;;;19.30;99.90;;;;;;5087791;28;20416;-74
2023/07/15 10:44:19;;;;;;;7.07;5.67;;;19.40;99.90;;;;;;5108499;28;20430;-75
2023/07/15 10:46:46;;;;;;;7.20;4.90;;;19.50;99.90;;;;;;5076117;28;20502;-72
2023/07/15 10:49:12;;;;;;;6.20;5.60;;;19.50;99.90;;;;;;5088567;28;20521;-74
2023/07/15 10:51:38;;;;;;;6.40;5.70;;;19.50;99.90;;;;;;5105208;28;20534;-74
2023/07/15 10:54:04;;;;;;;6.10;4.90;;;19.60;99.90;;;;;;5089795;28;20185;-73
2023/07/15 10:56:30;;;;;;;6.20;5.57;;;19.70;99.90;;;;;;5089688;28;20430;-73
2023/07/15 10:58:57;;;;;;;6.40;5.40;;;19.80;99.90;;;;;;5086959;28;20591;-74
2023/07/15 11:01:23;;;;;;;8.33;7.27;;;19.90;99.90;;;;;;5054620;28;20427;-75
2023/07/15 11:03:49;;;;;;;9.60;6.93;;;19.90;99.90;;;;;;5056050;28;20434;-75
2023/07/15 11:06:15;;;;;;;8.50;6.17;;;20.00;99.90;;;;;;5088145;28;20279;-75
2023/07/15 11:08:40;;;;;;;10.17;7.27;;;20.20;99.90;;;;;;5071268;28;20218;-74
2023/07/15 11:11:10;;;;;;;6.70;5.73;;;20.40;99.90;;;;;;5087562;28;20492;-73
2023/07/15 11:13:37;;;;;;;8.10;6.17;;;20.60;99.90;;;;;;5105161;28;20183;-75
2023/07/15 11:16:03;;;;;;;8.27;5.90;;;20.80;99.90;;;;;;5064316;28;20496;-73
2023/07/15 11:18:29;;;;;;;5.77;5.27;;;20.80;99.90;;;;;;5084157;28;20411;-75
2023/07/15 11:20:57;;;;;;;6.20;5.50;;;20.70;99.90;;;;;;5108078;28;20580;-75
2023/07/15 11:23:23;;;;;;;6.40;5.80;;;20.70;99.90;;;;;;5076026;28;20374;-78
2023/07/15 11:25:49;;;;;;;8.53;5.83;;;20.60;99.90;;;;;;5090427;28;20481;-74
2023/07/15 11:28:17;;;;;;;6.40;5.27;;;20.50;99.90;;;;;;5090147;28;20180;-75
2023/07/15 11:30:47;;;;;;;5.30;4.80;;;20.50;99.90;;;;;;5103019;28;20558;-75
2023/07/15 11:33:14;;;;;;;5.47;4.90;;;20.70;99.90;;;;;;5049433;28;20408;-77
2023/07/15 11:35:41;;;;;;;5.37;4.80;;;20.80;99.90;;;;;;5040204;28;20414;-74
2023/07/15 11:38:14;;;;;;;5.70;5.13;;;21.00;99.90;;;;;;5086950;28;20411;-75
2023/07/15 11:40:54;;;;;;;7.00;5.30;;;21.30;99.90;;;;;;5090352;28;20469;-73
2023/07/15 11:43:25;;;;;;;4.60;4.13;;;21.70;99.90;;;;;;5091149;28;20414;-75
2023/07/15 11:45:59;;;;;;;7.90;4.90;;;22.10;99.90;;;;;;5073176;28;20397;-74
2023/07/15 11:48:34;;;;;;;4.60;3.77;;;22.50;99.90;;;;;;5072900;28;20456;-72
2023/07/15 11:51:05;;;;;;;4.40;4.00;;;23.10;99.90;;;;;;5075186;28;20473;-73
2023/07/15 11:53:35;;;;;;;4.00;3.37;;;23.50;99.90;;;;;;5098478;28;20404;-75
2023/07/15 11:56:02;;;;;;;4.33;3.93;;;23.90;99.90;;;;;;5111571;28;20415;-76
2023/07/15 11:58:46;;;;;;;6.77;4.40;;;24.30;99.90;;;;;;5087163;28;20418;-73
2023/07/15 12:01:23;;;;;;;4.33;3.70;;;24.60;99.90;;;;;;5071901;28;20477;-75
2023/07/15 12:03:49;;;;;;;3.60;3.20;;;24.80;99.90;;;;;;5046366;28;20420;-76
2023/07/15 12:06:16;;;;;;;4.80;3.50;;;24.90;99.90;;;;;;5045563;28;20404;-74
2023/07/15 12:08:43;;;;;;;3.43;3.03;;;25.00;99.90;;;;;;5063595;28;20220;-73
2023/07/15 12:11:16;;;;;;;4.50;4.10;;;24.90;99.90;;;;;;5087100;28;20561;-73
2023/07/15 12:13:41;;;;;;;4.60;3.77;;;24.80;99.90;;;;;;5085780;28;20426;-75
2023/07/15 12:16:07;;;;;;;4.50;4.10;;;24.70;99.90;;;;;;5054922;28;20431;-77
2023/07/15 12:18:33;;;;;;;3.23;2.93;;;24.60;99.90;;;;;;5073306;28;20189;-74
2023/07/15 12:20:58;;;;;;;4.07;3.67;;;24.60;99.90;;;;;;5087166;28;20219;-77
2023/07/15 12:23:24;;;;;;;4.23;3.80;;;24.60;99.90;;;;;;5111251;28;20504;-75
2023/07/15 12:25:50;;;;;;;4.17;3.60;;;24.60;99.90;;;;;;5110455;28;20223;-75
2023/07/15 12:28:16;;;;;;;4.83;4.20;;;24.50;99.90;;;;;;5093014;28;20184;-77
2023/07/15 12:30:41;;;;;;;4.40;4.00;;;24.60;99.90;;;;;;5061377;28;20221;-76
2023/07/15 12:33:07;;;;;;;5.00;4.47;;;24.80;99.90;;;;;;5037649;28;20182;-75
2023/07/15 12:35:32;;;;;;;5.60;4.63;;;25.00;99.90;;;;;;5036993;28;20181;-76
2023/07/15 12:37:58;;;;;;;6.60;5.90;;;25.10;99.90;;;;;;5072163;28;20178;-75
2023/07/15 12:40:23;;;;;;;5.40;4.90;;;25.10;99.90;;;;;;5098262;28;20501;-73
2023/07/15 12:42:49;;;;;;;6.87;5.63;;;25.00;99.90;;;;;;5068231;28;20173;-73
2023/07/15 12:45:15;;;;;;;5.80;5.27;;;24.90;99.90;;;;;;5092255;28;20165;-76
2023/07/15 12:47:41;;;;;;;6.70;5.60;;;24.70;99.90;;;;;;5067094;28;20278;-75
2023/07/15 12:50:07;;;;;;;6.83;5.47;;;24.60;99.90;;;;;;5092658;28;20434;-74